VNKT METAR

Available data for VNKT from the past hour
KATHMANDU INTL A
Metar
VNKT 200450Z 16003KT 3000 HZ FEW015 SCT030 17/08 Q1020 NOSIG

04:50 UTC

Wind: 160° 3kt

Visibility: 3000 m

Sky: FEW 1500 ft

Temp: 17 deg C / 62.6 deg F

Dewpoint: 8 deg C / 46.4 deg F

Pressure: 1020 hPa

TAF
TAF VNKT 192300Z 2000/2024 VRB02KT 3000 BR FEW010 SCT100 PROB30 2001/2003 1500 BR BECMG 2004/2005 VRB02KT 5000 HZ FEW015 BECMG 2007/2009 27008KT 7000 FEW020 SCT030 BECMG 2013/2014 VRB02KT 6000 FEW015

WARNING: the data listed  above is for informational purposes only and should be confirmed from official sources. Data presented here on this page are fetched from Aviation weather data from NOAA’s Aviation Digital Data Service.

How to see the Details of METAR Reading.

Click on the Triangle beside of the Word METAR.(Refer to Fig.1)

VNKTmetar